Aeroporto :
LOGIN :

Iscrizione | Disclaimer

   EN    FR    IT 

 










Sommario :    VFR   VFR Marginale   IFR   IFR Intensivo   IFR Molto Intensivo
Visibilità : 
Base nubi : 
>= 8 km
>= 3000ft
5 / 8 km
1000 / 3000 ft
1500m / 5 km
500 / 1000 ft
800 / 1500m
200 / 500 ft
< 800m
< 200 ft
Simboli :   Temporali  Nebbia  Neve Forte  Precipitazioni Forti  Vento > 20 kt
SIGMETs :   Varie  Temporali  Ghiacco  Turbolenza  Onda orograficha  Ceneri Vulcaniche







- Altitudine del aeroporto : 1115 ft
- Codice IATA : GRZ


LOWG - Graz

ULTIMO METAR :
  • 161850Z 29006KT 240V330 9999 FEW040 SCT080 BKN140 22/14 Q1018 NOSIG

METARs OBSOLETI :
  • 161820Z 34012KT 9999 FEW040 SCT080 BKN140 22/13 Q1017 NOSIG
  • 161750Z 02008KT 9999 FEW040 SCT080 BKN220 20/16 Q1017 NOSIG
  • 161720Z VRB03KT 9999 FEW040 SCT090 BKN220 20/17 Q1017 NOSIG
  • 161650Z VRB04KT 9999 FEW040 FEW045CB SCT090 BKN140 21/15 Q1017 BECMG NSW
  • 161620Z 23004KT 200V270 9999 TS FEW040 FEW045CB SCT060 BKN140 20/16 Q1017 BECMG NSW
  • 161550Z VRB02KT 9999 TS FEW040 FEW045CB SCT060 BKN140 20/17 Q1016 BECMG NSW

TAF TAF LOWG
Valido dal 16 a 18 ore il 17 a 18 ore UTC


161715Z 1618/1718 VRB02KT 9999 FEW050 SCT090 BKN200 TX26/1712Z TN15/1703Z
PROB30
TEMPO 1618/1620 FEW045CB SCT070 BKN100
TEMPO 1711/1718 FEW050 FEW060TCU BKN070
Nessun NOTAM noto per questo aeroporto.



MetMap, La meteo Aeronautica in un colpo d'occhio ! - Copyright ORBIFLY Dicembre 2007 - Disclaimer

ORBIFLY MET'MAP TEAM :

Programmazione e sviluppo : Alexandra Zaïnal
Concezione e sviluppo : Baudouin d'Aumeries
Co-Programmazione e sviluppo : Marc-Olivier Méhu
Supporto tecnico e logistico : Manuel Goepfert
Aiuto per la traduzione : Arnaldo La Scala

Contatto : metmap@orbifly.com




FONTI E CREDITI :

   NOAA